Airfield :
LOGIN :

Register | Disclaimer

   EN    FR    IT 

 










Legend :    VFR   Marginal VFR   IFR   Intensive IFR   Very Intensive IFR
Visi :
Ceiling :
>= 8 km
>= 3000ft
5 to 8 km
1000 to 3000 ft
1500m to 5 km
500 to 1000 ft
800 to 1500m
200 to 500 ft
< 800m
< 200 ft
Symbols :   Thunderstorms  Fog  Heavy snow  Heavy precipitations  Wind > 20 kt
SIGMETs :     Misc.  Thunderstorms  Icing  Turbulence  Mountain Waves  Volcanic Ashes







- Airport Elevation : 587 ft
- IATA code : XCR
- Download approach charts


LFOK - Chalons Vatry

CURRENT METAR :
  • 221000Z AUTO 17018KT 6000 OVC009 M02/M03 Q1009 TEMPO 1200 SN OVC002

EXPIRED METARs :
  • 220930Z AUTO 17017KT 7000 BKN012 BKN018 BKN170 M03/M04 Q1009 TEMPO 1200 SN OVC002
  • 220900Z AUTO 18014KT 8000 SCT014 BKN160 M03/M04 Q1010 BECMG OVC007
  • 220830Z AUTO 17014KT 7000 FEW014 BKN160 M04/M05 Q1010 BECMG OVC007
  • 220800Z AUTO 17015KT 8000 FEW009 SCT160 BKN190 M04/M05 Q1010 BECMG OVC007
  • 220730Z AUTO 18014KT 7000 OVC009 M04/M05 Q1011 NOSIG
  • 220700Z AUTO 19013KT 8000 BKN009 OVC013 M03/M04 Q1011 NOSIG

TAF TAF LFOK
Valid from the 22 at 06:00 until the 23 at 06:00 UTC


220500Z 2206/2306 20012KT 6000 OVC007
TEMPO 2211/2216 1200 SN OVC002
TEMPO 2300/2305 1200 SN OVC003
No reported NOTAMs for that airfield.



MET'MAP, your aeronautical weather chart ! - Copyright ORBIFLY December 2007 - Disclaimer

ORBIFLY MET'MAP TEAM :

Programming & Development : Alexandra Zaïnal
Concept & Development : Baudouin d'Aumeries
Co-Development & Prog : Marc-Olivier Méhu
Technical & hardware support : Manuel Goepfert

Contact : metmap@orbifly.com




SOURCES & CREDITS :

   NOAA